createdAt,value
2018-09-12T00:01:23.167Z,63.12
2018-09-12T00:03:49.849Z,63.29
2018-09-12T00:06:16.563Z,63.21
2018-09-12T00:08:49.793Z,62.63
2018-09-12T00:11:16.582Z,62.75
2018-09-12T00:13:44.089Z,62.51
2018-09-12T00:16:10.976Z,63.23
2018-09-12T00:18:38.966Z,63.24
2018-09-12T00:21:06.014Z,63.72
2018-09-12T00:23:33.783Z,63.57
2018-09-12T00:28:33.039Z,61.85
2018-09-12T00:30:59.976Z,61.67
2018-09-12T00:33:27.908Z,61.69
2018-09-12T00:40:59.727Z,61.80
2018-09-12T00:43:26.877Z,61.54
2018-09-12T00:45:53.619Z,60.91
2018-09-12T00:48:21.063Z,61.27
2018-09-12T00:50:49.032Z,60.71
2018-09-12T00:53:17.436Z,61.14
2018-09-12T00:55:48.095Z,62.57
2018-09-12T00:58:16.573Z,62.33
2018-09-12T01:00:44.404Z,63.49
2018-09-12T01:05:43.180Z,63.39
2018-09-12T01:08:11.987Z,63.41
2018-09-12T01:10:38.858Z,63.61
2018-09-12T01:13:08.964Z,63.50
2018-09-12T01:15:38.108Z,63.94
2018-09-12T01:18:07.162Z,63.78
2018-09-12T01:23:06.997Z,65.07
2018-09-12T01:25:33.968Z,65.01
2018-09-12T01:28:02.582Z,64.51
2018-09-12T01:30:31.064Z,63.92
2018-09-12T01:32:57.619Z,63.02
2018-09-12T01:35:25.286Z,62.17
2018-09-12T01:37:58.824Z,63.13
2018-09-12T01:40:26.994Z,64.18
2018-09-12T01:42:54.236Z,63.75
2018-09-12T01:45:22.027Z,63.95
2018-09-12T01:47:50.355Z,64.65
2018-09-12T01:50:17.919Z,64.40
2018-09-12T01:52:47.032Z,63.49
2018-09-12T01:55:13.768Z,63.61
2018-09-12T01:57:40.771Z,65.66
2018-09-12T02:00:08.640Z,66.00
2018-09-12T02:02:37.771Z,64.87
2018-09-12T02:05:06.658Z,64.56
2018-09-12T02:07:34.351Z,64.48
2018-09-12T02:10:02.800Z,64.63
2018-09-12T02:12:30.277Z,64.94
2018-09-12T02:14:57.599Z,64.17
2018-09-12T02:17:26.745Z,63.75
2018-09-12T02:19:54.252Z,64.21
2018-09-12T02:24:53.517Z,64.12
2018-09-12T02:27:21.235Z,64.35
2018-09-12T02:29:49.616Z,64.99
2018-09-12T02:32:18.709Z,64.12
2018-09-12T02:34:46.551Z,64.94
2018-09-12T02:37:15.521Z,63.98
2018-09-12T02:39:44.210Z,64.00
2018-09-12T02:42:11.635Z,63.60
2018-09-12T02:44:39.582Z,64.43
2018-09-12T02:47:09.147Z,63.24
2018-09-12T02:49:37.138Z,63.96
2018-09-12T02:52:04.851Z,63.89
2018-09-12T02:54:34.121Z,65.07
2018-09-12T02:57:01.646Z,65.86
2018-09-12T02:59:28.891Z,66.01
2018-09-12T03:01:56.964Z,66.03
2018-09-12T03:09:27.994Z,65.63
2018-09-12T03:11:55.710Z,65.93
2018-09-12T03:14:25.536Z,66.43
2018-09-12T03:21:56.275Z,67.29
2018-09-12T03:24:23.213Z,66.68
2018-09-12T03:26:51.280Z,67.89
2018-09-12T03:29:18.849Z,66.39
2018-09-12T03:31:46.498Z,66.98
2018-09-12T03:34:13.457Z,66.96
2018-09-12T03:36:40.457Z,66.65
2018-09-12T03:39:08.224Z,67.55
2018-09-12T03:41:37.780Z,66.50
2018-09-12T03:46:37.354Z,66.62
2018-09-12T03:49:05.038Z,66.37
2018-09-12T03:51:32.732Z,65.80
2018-09-12T03:53:59.745Z,66.26
2018-09-12T03:56:26.642Z,66.69
2018-09-12T03:58:53.857Z,66.56
2018-09-12T04:04:00.117Z,66.80
2018-09-12T04:06:30.263Z,66.36
2018-09-12T04:08:56.812Z,66.70
2018-09-12T04:11:24.956Z,66.76
2018-09-12T04:13:54.183Z,66.18
2018-09-12T04:16:23.265Z,66.53
2018-09-12T04:18:52.378Z,65.71
2018-09-12T04:21:19.066Z,65.56
2018-09-12T04:23:47.369Z,65.07
2018-09-12T04:26:16.314Z,64.96
2018-09-12T04:28:43.544Z,64.77
2018-09-12T04:31:10.492Z,66.00
2018-09-12T04:33:39.637Z,65.76
2018-09-12T04:38:39.168Z,65.66
2018-09-12T04:41:05.781Z,65.46
2018-09-12T04:43:32.523Z,66.27
2018-09-12T04:48:31.168Z,65.71
2018-09-12T04:50:58.590Z,64.75
2018-09-12T04:53:25.786Z,64.89
2018-09-12T04:55:53.230Z,65.13
2018-09-12T04:58:20.226Z,64.56
2018-09-12T05:00:47.759Z,63.88
2018-09-12T05:03:14.902Z,63.76
2018-09-12T05:05:41.464Z,63.90
2018-09-12T05:08:07.976Z,64.84
2018-09-12T05:10:34.993Z,63.66
2018-09-12T05:13:01.636Z,64.51
2018-09-12T05:15:29.164Z,63.95
2018-09-12T05:17:55.859Z,63.32
2018-09-12T05:20:22.511Z,62.53
2018-09-12T05:22:49.505Z,62.09
2018-09-12T05:25:16.631Z,61.62
2018-09-12T05:27:44.933Z,62.18
2018-09-12T05:30:11.687Z,61.75
2018-09-12T05:32:39.999Z,61.38
2018-09-12T05:35:07.969Z,62.79
2018-09-12T05:37:34.651Z,61.83
2018-09-12T05:40:01.662Z,61.56
2018-09-12T05:42:28.439Z,60.84
2018-09-12T05:44:55.113Z,60.54
2018-09-12T05:47:23.100Z,59.67
2018-09-12T05:49:49.689Z,60.32
2018-09-12T05:52:17.105Z,59.70
2018-09-12T05:54:46.071Z,59.52
2018-09-12T05:57:12.875Z,58.92
2018-09-12T05:59:39.547Z,58.25
2018-09-12T06:02:06.317Z,57.45
2018-09-12T06:04:33.523Z,56.40
2018-09-12T06:07:01.243Z,56.52
2018-09-12T06:09:29.560Z,55.09
2018-09-12T06:11:56.304Z,54.77
2018-09-12T06:14:22.885Z,56.00
2018-09-12T06:16:49.540Z,54.59
2018-09-12T06:19:16.752Z,53.74
2018-09-12T06:21:43.323Z,54.21
2018-09-12T06:24:12.979Z,53.96
2018-09-12T06:26:39.880Z,52.23
2018-09-12T06:29:06.558Z,53.46
2018-09-12T06:31:36.412Z,51.54
2018-09-12T06:34:02.954Z,52.33
2018-09-12T06:36:35.573Z,51.97
2018-09-12T06:41:35.727Z,50.74
2018-09-12T06:44:02.395Z,49.74
2018-09-12T06:46:31.723Z,50.18
2018-09-12T06:51:30.098Z,48.69
2018-09-12T06:53:57.524Z,49.02
2018-09-12T06:56:24.192Z,49.74
2018-09-12T06:58:51.312Z,49.75
2018-09-12T07:01:17.935Z,48.58
2018-09-12T07:03:45.740Z,47.55
2018-09-12T07:06:12.356Z,46.47
2018-09-12T07:08:40.006Z,48.14
2018-09-12T07:11:11.156Z,47.93
2018-09-12T07:13:39.715Z,47.51
2018-09-12T07:16:07.968Z,47.13
2018-09-12T07:18:35.675Z,48.33
2018-09-12T07:23:34.554Z,48.02
2018-09-12T07:26:01.530Z,47.08
2018-09-12T07:28:28.860Z,45.60
2018-09-12T07:30:55.709Z,46.07
2018-09-12T07:33:22.342Z,45.63
2018-09-12T07:40:53.307Z,44.83
2018-09-12T07:43:20.351Z,45.08
2018-09-12T07:45:47.011Z,45.39
2018-09-12T07:50:46.892Z,45.03
2018-09-12T07:53:16.435Z,45.66
2018-09-12T07:55:44.088Z,45.60
2018-09-12T07:58:11.549Z,44.15
2018-09-12T08:00:39.816Z,43.84
2018-09-12T08:03:06.666Z,44.55
2018-09-12T08:05:33.433Z,44.66
2018-09-12T08:08:00.096Z,44.20
2018-09-12T08:10:26.716Z,44.13
2018-09-12T08:12:53.766Z,45.38
2018-09-12T08:15:21.647Z,44.01
2018-09-12T08:17:49.503Z,43.76
2018-09-12T08:20:16.097Z,43.54
2018-09-12T08:22:42.741Z,42.76
2018-09-12T08:25:12.465Z,42.72
2018-09-12T08:27:48.420Z,44.15
2018-09-12T08:30:15.085Z,41.35
2018-09-12T08:32:46.422Z,43.04
2018-09-12T08:35:16.953Z,42.41
2018-09-12T08:37:43.450Z,42.01
2018-09-12T08:42:45.583Z,42.74
2018-09-12T08:45:16.814Z,41.64
2018-09-12T08:47:49.785Z,40.46
2018-09-12T08:50:21.691Z,40.97
2018-09-12T08:52:48.510Z,40.72
2018-09-12T08:55:21.297Z,41.14
2018-09-12T08:57:57.571Z,40.53
2018-09-12T09:00:25.089Z,40.49
2018-09-12T09:02:58.040Z,39.10
2018-09-12T09:05:24.703Z,38.17
2018-09-12T09:07:52.126Z,37.97
2018-09-12T09:12:52.015Z,37.57
2018-09-12T09:15:18.660Z,37.42
2018-09-12T09:17:46.108Z,38.18
2018-09-12T09:20:12.773Z,37.64
2018-09-12T09:22:40.044Z,36.85
2018-09-12T09:25:09.935Z,37.31
2018-09-12T09:27:36.673Z,34.82
2018-09-12T09:30:03.325Z,36.48
2018-09-12T09:32:37.112Z,37.39
2018-09-12T09:35:05.438Z,35.23
2018-09-12T09:37:33.047Z,34.91
2018-09-12T09:40:04.925Z,36.78
2018-09-12T09:42:34.929Z,34.97
2018-09-12T09:45:03.953Z,35.09
2018-09-12T09:50:07.530Z,34.32
2018-09-12T09:52:34.940Z,33.12
2018-09-12T09:55:01.638Z,33.51
2018-09-12T09:57:29.118Z,34.87
2018-09-12T10:00:03.169Z,34.11
2018-09-12T10:05:12.878Z,33.48
2018-09-12T10:07:45.519Z,34.62
2018-09-12T10:10:12.005Z,31.76
2018-09-12T10:12:45.584Z,31.38
2018-09-12T10:17:50.450Z,32.04
2018-09-12T10:20:21.266Z,30.73
2018-09-12T10:22:47.831Z,32.64
2018-09-12T10:25:21.401Z,30.55
2018-09-12T10:27:48.307Z,31.81
2018-09-12T10:30:17.441Z,30.24
2018-09-12T10:32:47.055Z,31.57
2018-09-12T10:35:22.618Z,30.43
2018-09-12T10:37:56.896Z,31.83
2018-09-12T10:40:23.584Z,32.52
2018-09-12T10:42:51.536Z,32.17
2018-09-12T10:45:18.918Z,31.65
2018-09-12T10:47:46.135Z,31.81
2018-09-12T10:50:21.777Z,31.74
2018-09-12T10:52:48.417Z,29.89
2018-09-12T10:55:22.175Z,30.70
2018-09-12T10:57:48.943Z,30.25
2018-09-12T11:00:15.532Z,28.96
2018-09-12T11:02:49.879Z,28.98
2018-09-12T11:05:16.576Z,29.28
2018-09-12T11:07:53.104Z,28.48
2018-09-12T11:10:24.206Z,28.88
2018-09-12T11:12:51.826Z,29.07
2018-09-12T11:15:18.355Z,29.84
2018-09-12T11:17:45.141Z,29.31
2018-09-12T11:20:12.385Z,30.40
2018-09-12T11:22:43.977Z,29.66
2018-09-12T11:25:20.021Z,27.25
2018-09-12T11:27:48.082Z,28.67
2018-09-12T11:30:14.715Z,29.96
2018-09-12T11:35:19.207Z,28.53
2018-09-12T11:37:46.446Z,28.12
2018-09-12T11:45:49.113Z,27.82
2018-09-12T11:51:00.599Z,26.82
2018-09-12T11:53:31.869Z,27.87
2018-09-12T11:56:02.416Z,28.54
2018-09-12T11:58:39.054Z,28.53
2018-09-12T12:01:13.994Z,28.26
2018-09-12T12:03:40.664Z,27.64
2018-09-12T12:06:10.395Z,26.41
2018-09-12T12:08:47.318Z,28.27
2018-09-12T12:11:14.029Z,29.53
2018-09-12T12:13:42.567Z,30.25
2018-09-12T12:16:13.882Z,28.24
2018-09-12T12:18:41.825Z,28.37
2018-09-12T12:21:08.837Z,28.85
2018-09-12T12:23:35.585Z,27.02
2018-09-12T12:26:03.320Z,28.35
2018-09-12T12:28:30.619Z,27.14
2018-09-12T12:30:57.214Z,27.17
2018-09-12T12:35:56.224Z,29.53
2018-09-12T12:41:08.422Z,26.67
2018-09-12T12:43:34.923Z,26.78
2018-09-12T12:46:01.774Z,28.26
2018-09-12T12:48:28.297Z,26.98
2018-09-12T12:56:12.124Z,28.04
2018-09-12T13:01:10.253Z,27.90
2018-09-12T13:03:45.635Z,26.50
2018-09-12T13:06:12.296Z,27.82
2018-09-12T13:08:38.756Z,27.17
2018-09-12T13:11:05.212Z,27.92
2018-09-12T13:13:31.822Z,26.85
2018-09-12T13:16:02.944Z,27.90
2018-09-12T13:18:30.414Z,25.79
2018-09-12T13:21:03.532Z,27.56
2018-09-12T13:23:30.101Z,27.98
2018-09-12T13:26:01.366Z,27.26
2018-09-12T13:31:10.305Z,29.72
2018-09-12T13:33:37.095Z,27.78
2018-09-12T13:36:03.543Z,26.52
2018-09-12T13:43:57.253Z,29.82
2018-09-12T13:46:23.753Z,29.53
2018-09-12T13:48:57.909Z,28.40
2018-09-12T13:51:24.436Z,28.30
2018-09-12T13:54:00.316Z,27.39
2018-09-12T14:09:25.862Z,30.57
2018-09-12T14:11:57.678Z,29.08
2018-09-12T14:14:25.426Z,28.30
2018-09-12T14:19:34.868Z,28.13
2018-09-12T14:22:10.537Z,28.23
2018-09-12T14:24:38.830Z,27.80
2018-09-12T14:27:05.391Z,28.59
2018-09-12T14:29:32.010Z,27.71
2018-09-12T14:31:58.708Z,27.54
2018-09-12T14:34:26.165Z,27.34
2018-09-12T14:36:52.687Z,27.55
2018-09-12T14:41:52.749Z,25.62
2018-09-12T14:44:24.791Z,27.16
2018-09-12T14:46:51.395Z,28.04
2018-09-12T14:49:18.830Z,27.54
2018-09-12T14:51:46.963Z,27.21
2018-09-12T14:56:50.384Z,29.48
2018-09-12T14:59:17.707Z,28.25
2018-09-12T15:01:44.414Z,29.92
2018-09-12T15:07:03.904Z,27.70
2018-09-12T15:12:10.926Z,28.83
2018-09-12T15:19:54.042Z,28.12
2018-09-12T15:22:20.672Z,26.75
2018-09-12T15:27:19.018Z,28.90
2018-09-12T15:29:46.913Z,28.48
2018-09-12T15:32:13.520Z,29.15
2018-09-12T15:34:40.248Z,29.61
2018-09-12T15:37:07.004Z,30.27
2018-09-12T15:39:34.614Z,30.14
2018-09-12T15:42:01.780Z,30.67
2018-09-12T15:44:29.334Z,31.16
2018-09-12T15:46:55.999Z,31.12
2018-09-12T15:52:06.152Z,32.12
2018-09-12T15:57:45.177Z,32.29
2018-09-12T16:02:44.667Z,32.44
2018-09-12T16:05:13.079Z,32.32
2018-09-12T16:07:39.681Z,33.68
2018-09-12T16:12:38.986Z,33.60
2018-09-12T16:15:06.504Z,34.22
2018-09-12T16:17:33.419Z,35.22
2018-09-12T16:20:00.126Z,36.78
2018-09-12T16:24:58.974Z,38.13
2018-09-12T16:27:25.773Z,38.99
2018-09-12T16:29:54.274Z,39.71
2018-09-12T16:32:20.893Z,40.41
2018-09-12T16:37:19.095Z,41.59
2018-09-12T16:39:45.583Z,41.17
2018-09-12T16:42:12.170Z,41.59
2018-09-12T16:52:35.446Z,43.54
2018-09-12T16:55:02.071Z,43.70
2018-09-12T16:57:28.554Z,43.08
2018-09-12T17:00:02.662Z,43.67
2018-09-12T17:02:29.445Z,43.74
2018-09-12T17:04:59.479Z,45.12
2018-09-12T17:07:28.914Z,45.50
2018-09-12T17:09:55.572Z,45.04
2018-09-12T17:12:22.887Z,43.49
2018-09-12T17:17:27.519Z,44.63
2018-09-12T17:19:54.209Z,45.57
2018-09-12T17:22:26.068Z,45.44
2018-09-12T17:24:57.204Z,44.90
2018-09-12T17:29:59.947Z,45.87
2018-09-12T17:32:27.364Z,45.63
2018-09-12T17:34:59.944Z,46.70
2018-09-12T17:37:27.356Z,46.94
2018-09-12T17:39:54.184Z,46.68
2018-09-12T17:42:22.700Z,47.85
2018-09-12T17:44:51.815Z,48.37
2018-09-12T17:47:18.402Z,48.06
2018-09-12T17:49:45.037Z,47.87
2018-09-12T17:52:12.197Z,48.57
2018-09-12T17:54:38.883Z,48.39
2018-09-12T17:57:07.784Z,49.17
2018-09-12T17:59:39.507Z,48.96
2018-09-12T18:02:11.410Z,48.48
2018-09-12T18:04:41.803Z,49.22
2018-09-12T18:07:11.464Z,50.27
2018-09-12T18:09:42.128Z,50.27
2018-09-12T18:12:08.783Z,51.37
2018-09-12T18:14:36.647Z,51.90
2018-09-12T18:17:08.477Z,51.60
2018-09-12T18:19:40.398Z,51.20
2018-09-12T18:22:11.350Z,51.52
2018-09-12T18:27:11.099Z,51.70
2018-09-12T18:29:38.410Z,52.17
2018-09-12T18:37:13.756Z,53.11
2018-09-12T18:39:40.619Z,53.07
2018-09-12T18:42:07.376Z,52.41
2018-09-12T18:44:35.595Z,51.94
2018-09-12T18:47:04.911Z,52.42
2018-09-12T18:49:36.154Z,51.63
2018-09-12T18:52:02.735Z,52.31
2018-09-12T18:54:30.194Z,52.15
2018-09-12T18:56:56.791Z,52.44
2018-09-12T19:01:59.913Z,53.38
2018-09-12T19:04:28.932Z,54.64
2018-09-12T19:06:56.531Z,54.03
2018-09-12T19:09:23.262Z,53.11
2018-09-12T19:11:50.286Z,53.08
2018-09-12T19:14:21.424Z,53.86
2018-09-12T19:16:49.236Z,53.95
2018-09-12T19:19:20.646Z,54.08
2018-09-12T19:21:47.586Z,55.18
2018-09-12T19:26:52.960Z,56.68
2018-09-12T19:29:22.385Z,56.78
2018-09-12T19:31:52.388Z,56.96
2018-09-12T19:34:20.710Z,56.18
2018-09-12T19:36:48.409Z,55.86
2018-09-12T19:39:15.969Z,56.48
2018-09-12T19:41:45.054Z,56.38
2018-09-12T19:44:11.703Z,55.90
2018-09-12T19:46:39.291Z,55.97
2018-09-12T19:49:08.244Z,56.54
2018-09-12T19:51:34.958Z,56.72
2018-09-12T19:54:03.892Z,57.86
2018-09-12T19:56:30.679Z,57.12
2018-09-12T19:58:57.304Z,57.17
2018-09-12T20:01:24.332Z,57.13
2018-09-12T20:03:51.795Z,58.16
2018-09-12T20:06:19.967Z,57.73
2018-09-12T20:08:47.159Z,57.08
2018-09-12T20:13:49.362Z,58.46
2018-09-12T20:16:15.947Z,58.24
2018-09-12T20:18:43.298Z,58.11
2018-09-12T20:21:11.113Z,58.63
2018-09-12T20:23:37.883Z,58.32
2018-09-12T20:26:07.497Z,57.84
2018-09-12T20:28:34.103Z,57.75
2018-09-12T20:31:02.176Z,57.30
2018-09-12T20:33:28.775Z,58.45
2018-09-12T20:38:28.450Z,58.38
2018-09-12T20:40:56.633Z,58.30
2018-09-12T20:43:23.272Z,59.40
2018-09-12T20:48:25.854Z,59.08
2018-09-12T20:50:52.583Z,59.37
2018-09-12T20:53:20.886Z,59.12
2018-09-12T20:55:50.420Z,60.01
2018-09-12T20:58:18.121Z,58.77
2018-09-12T21:00:45.423Z,58.54
2018-09-12T21:03:14.869Z,58.59
2018-09-12T21:05:42.194Z,58.29
2018-09-12T21:08:09.716Z,58.34
2018-09-12T21:10:40.245Z,58.98
2018-09-12T21:15:39.464Z,59.95
2018-09-12T21:18:07.083Z,59.23
2018-09-12T21:20:39.980Z,60.15
2018-09-12T21:23:07.426Z,60.31
2018-09-12T21:25:35.021Z,59.84
2018-09-12T21:28:03.603Z,60.49
2018-09-12T21:30:31.186Z,59.66
2018-09-12T21:33:01.471Z,60.52
2018-09-12T21:35:29.632Z,60.10
2018-09-12T21:37:57.022Z,59.98
2018-09-12T21:40:25.948Z,60.92
2018-09-12T21:42:54.351Z,60.61
2018-09-12T21:45:21.115Z,60.13
2018-09-12T21:47:50.220Z,61.37
2018-09-12T21:50:16.885Z,61.25
2018-09-12T21:52:43.433Z,61.52
2018-09-12T21:55:13.436Z,61.05
2018-09-12T21:57:39.993Z,60.32
2018-09-12T22:00:11.487Z,60.79
2018-09-12T22:02:41.758Z,61.21
2018-09-12T22:07:41.852Z,61.87
2018-09-12T22:10:08.744Z,61.21
2018-09-12T22:12:35.490Z,61.15
2018-09-12T22:15:02.059Z,61.89
2018-09-12T22:17:30.640Z,61.87
2018-09-12T22:19:57.511Z,61.45
2018-09-12T22:22:24.527Z,61.74
2018-09-12T22:24:51.934Z,62.23
2018-09-12T22:27:18.769Z,62.00
2018-09-12T22:29:45.428Z,62.12
2018-09-12T22:32:12.757Z,62.08
2018-09-12T22:34:41.225Z,62.21
2018-09-12T22:37:08.360Z,62.17
2018-09-12T22:39:36.286Z,62.69
2018-09-12T22:42:03.654Z,62.71
2018-09-12T22:44:31.006Z,64.17
2018-09-12T22:46:59.722Z,63.90
2018-09-12T22:49:29.060Z,62.32
2018-09-12T22:51:56.832Z,62.22
2018-09-12T22:54:25.013Z,62.23
2018-09-12T22:56:51.775Z,62.93
2018-09-12T22:59:19.312Z,62.55
2018-09-12T23:01:45.998Z,62.55
2018-09-12T23:04:12.778Z,62.66
2018-09-12T23:06:39.442Z,63.08
2018-09-12T23:09:06.245Z,62.75
2018-09-12T23:11:32.821Z,62.88
2018-09-12T23:13:59.858Z,63.25
2018-09-12T23:16:28.091Z,64.94
2018-09-12T23:18:54.771Z,64.84
2018-09-12T23:21:21.826Z,64.18
2018-09-12T23:23:48.399Z,63.12
2018-09-12T23:26:15.708Z,62.51
2018-09-12T23:31:14.806Z,64.03
2018-09-12T23:33:41.482Z,63.73
2018-09-12T23:36:09.077Z,63.82
2018-09-12T23:38:37.102Z,63.72
2018-09-12T23:41:03.968Z,63.83
2018-09-12T23:43:30.711Z,64.63
2018-09-12T23:45:58.156Z,64.60
2018-09-12T23:48:24.690Z,64.35
2018-09-12T23:50:51.549Z,63.08
2018-09-12T23:55:52.863Z,63.30
2018-09-12T23:58:19.698Z,62.80
